Domov               UVHVVR             MKGP            O straneh              
ZDRAVSTVENO VARSTVO RASTLIN
  MREŽA AGROMET. POSTAJ
 ► PROGNOSTIČNA OBVESTILA
AGROMETEOROLOŠKI PODATKI -
ARSO
OBVLADOVANJE TVEGANJ ZARADI
NEUGODNIH VREMENSKIH RAZMER
  ► NARAVNE NESREČE
  ► SUŠA/MOČA
  ► NAMAKANJE
  ► ŽLED (gozdarstvo)
KARTOGRAFSKI PRIKAZI
SPLETNE POVEZAVE
PROJEKTI IN PUBLIKACIJE

AGROMETEOROLOŠKA MREŽA: VREMENSKE POSTAJE IN FENOLOŠKA OPAZOVANJA

Pregled podatkov za lokacijo Črnova (Gradišnik), meteorološka postaja 22213

Pregled senzorjev na lokaciji

ID Ime Zadnja
vrednost
Datum
zadnje
spremembe
Tip
senzorja
4194 Temperatura 2 m ( °C) 10,82 °C 23.8.2017 05:30 Generic -40 - +60 °C
4195 Relativna vlaga 2 m (% RH) 89,38 % RH 23.8.2017 05:30 Generic 0 - 100 %
4196 Omočenost lista (U) 1 U 23.8.2017 05:30 A730WET
4197 Padavine 0.2 mm (mm) 0 mm 23.8.2017 05:30 Generic 0.2 mm

Pregled podatkov zadnjih 24 ur

Zap.
št.
Datum in čas Črnova (Gradišnik)
Omočenost
lista
Padavine
0.2
mm
Relativna
vlaga
2
m
Temperatura
2
m
0 23.8.2017 04:30 1 0 89,38 10,82
1 23.8.2017 04:00 0 0 88,96 11,06
2 23.8.2017 03:30 1 0 91,55 10,79
3 23.8.2017 03:00 0 0 89,69 10,96
4 23.8.2017 02:30 0 0 86,06 11,94
5 23.8.2017 02:00 0 0 84,93 12,14
6 23.8.2017 01:30 0 0 84,4 12,16
7 23.8.2017 01:00 0 0 81,42 12,58
8 23.8.2017 00:30 0 0 81,42 12,8
9 23.8.2017 00:00 0 0 82,15 13,06
10 22.8.2017 23:30 0 0 75,95 13,63
11 22.8.2017 23:00 0 0 76,12 13,53
12 22.8.2017 22:30 0 0 72,87 14,82
13 22.8.2017 22:00 0 0 72,43 15,12
14 22.8.2017 21:30 0 0 65,15 15,7
15 22.8.2017 21:00 0 0 59,12 16,21
16 22.8.2017 20:30 0 0 61,07 16,19
17 22.8.2017 20:00 0 0 61,54 16,34
18 22.8.2017 19:30 0 0 60,17 16,97
19 22.8.2017 19:00 0 0 60,2 17,51
20 22.8.2017 18:30 0 0 57,17 18,95
21 22.8.2017 18:00 0 0 49,38 21,22
22 22.8.2017 17:30 0 0 46,59 22,44
23 22.8.2017 17:00 0 0 44,86 22,76
24 22.8.2017 16:30 0 0 44,71 23,17
25 22.8.2017 16:00 0 0 43,81 22,81
26 22.8.2017 15:30 0 0 43,76 22,81
27 22.8.2017 15:00 0 0 44,54 22,71
28 22.8.2017 14:30 0 0 43,88 22,1
29 22.8.2017 14:00 0 0 45,54 22,12
30 22.8.2017 13:30 0 0 46,42 21,9
31 22.8.2017 13:00 0 0 46,35 21,88
32 22.8.2017 12:30 0 0 47,72 22,27
33 22.8.2017 12:00 0 0 46,96 22,15
34 22.8.2017 11:30 0 0 46,94 21,88
35 22.8.2017 11:00 0 0 49,08 21,78
36 22.8.2017 10:30 0 0 48,94 21,37
37 22.8.2017 10:00 0 0 50,74 19,49
38 22.8.2017 09:30 0 0 52,06 18,85
39 22.8.2017 09:00 0 0 55,12 18,39
40 22.8.2017 08:30 0 0 60,44 17,39
41 22.8.2017 08:00 0 0 61,78 16,56
42 22.8.2017 07:30 0 0 67,03 14,63
43 22.8.2017 07:00 0 0 79,22 11,21
44 22.8.2017 06:30 0 0 84,47 9,91
© 2011 Ministrstvo za kmetijstvo, gozdarstvo in prehrano. Vse pravice pridržane.